Main page
Satellite images 15-day forecastsClimateMarine weather Cyclones Lightning AirportsFAQ Newsletter About
Weather : Europe Africa North America South America Asia Australia-Oceania Others
Languages Contact

Mexicali, Mexico

General Rodolfo Sánchez Taboada

latitude: 32-37-50N, longitude: 115-14-30W, elevation: 22 m


METAR: MMML 182304Z RTD 00000KT 10SM SKC 18/07 A3012 RMK CU S-NW
TAF: MMML 181657Z 1818/1918 32006KT P6SM SCT220 BECMG 1820/1821 24012KT FM190200 00000KT P6SM SCT220 BECMG 1917/1918 32006KT

Time: 17:43 (23:43 UTC)

Current weather observation

The report was made 39 minutes ago, at 23:04 UTC
Calm wind
Temperature 18°C
Humidity 49%
Pressure 1020 hPa
Visibility: 16.1 km
Clear sky

Change units

Forecast

The report was made 6 hours and 46 minutes ago, at 16:57 UTC
Forecast valid from 18 at 18 UTC to 19 at 18 UTC
Wind 6 kt from the Northwest
Visibility: 10 km
Scattered clouds at a height of 22000 ft
Becoming
from 18 at 20 UTC to 18 at 21 UTC
Wind 12 kt from the West/Southwest
From 19 at 0200 UTC
Wind kt from the North
Visibility: 10 km
Scattered clouds at a height of 22000 ft
Becoming
from 19 at 17 UTC to 19 at 18 UTC
Wind 6 kt from the Northwest
The information on this site is subject to a disclaimer
Weather : Europe Africa North America South America Asia Australia-Oceania Others
Satellite images 15-day forecastsClimateMarine weather Cyclones Lightning AirportsFAQ Languages Contact Newsletter About